createdAt,value
2018-08-07T00:00:16.084Z,1006.53
2018-08-07T00:01:15.888Z,1006.57
2018-08-07T00:02:16.122Z,1006.49
2018-08-07T00:03:16.114Z,1006.52
2018-08-07T00:04:16.105Z,1006.54
2018-08-07T00:05:15.911Z,1006.53
2018-08-07T00:06:15.929Z,1006.52
2018-08-07T00:07:15.921Z,1006.46
2018-08-07T00:08:15.926Z,1006.47
2018-08-07T00:09:15.930Z,1006.45
2018-08-07T00:10:15.936Z,1006.44
2018-08-07T00:11:15.941Z,1006.45
2018-08-07T00:12:15.949Z,1006.41
2018-08-07T00:13:16.155Z,1006.39
2018-08-07T00:14:15.970Z,1006.42
2018-08-07T00:15:15.964Z,1006.38
2018-08-07T00:16:15.982Z,1006.31
2018-08-07T00:17:15.975Z,1006.35
2018-08-07T00:18:15.983Z,1006.32
2018-08-07T00:19:15.985Z,1006.27
2018-08-07T00:20:15.990Z,1006.30
2018-08-07T00:21:15.997Z,1006.24
2018-08-07T00:22:16.012Z,1006.26
2018-08-07T00:23:16.006Z,1006.24
2018-08-07T00:24:16.027Z,1006.21
2018-08-07T00:25:16.018Z,1006.21
2018-08-07T00:26:16.226Z,1006.16
2018-08-07T00:27:16.041Z,1006.19
2018-08-07T00:28:16.237Z,1006.22
2018-08-07T00:29:16.041Z,1006.18
2018-08-07T00:30:16.070Z,1006.17
2018-08-07T00:31:16.050Z,1006.15
2018-08-07T00:32:16.067Z,1006.15
2018-08-07T00:33:16.062Z,1006.17
2018-08-07T00:34:16.067Z,1006.15
2018-08-07T00:35:16.081Z,1006.17
2018-08-07T00:36:16.076Z,1006.16
2018-08-07T00:37:16.084Z,1006.17
2018-08-07T00:38:16.098Z,1006.16
2018-08-07T00:39:16.294Z,1006.16
2018-08-07T00:40:16.299Z,1006.15
2018-08-07T00:41:16.104Z,1006.13
2018-08-07T00:42:16.109Z,1006.14
2018-08-07T00:43:16.115Z,1006.11
2018-08-07T00:44:16.119Z,1006.14
2018-08-07T00:45:16.124Z,1006.14
2018-08-07T00:46:16.143Z,1006.17
2018-08-07T00:47:16.161Z,1006.14
2018-08-07T00:48:16.153Z,1006.19
2018-08-07T00:49:16.344Z,1006.21
2018-08-07T00:50:16.148Z,1006.21
2018-08-07T00:51:16.152Z,1006.19
2018-08-07T00:52:16.361Z,1006.22
2018-08-07T00:53:16.180Z,1006.19
2018-08-07T00:54:16.369Z,1006.21
2018-08-07T00:55:16.207Z,1006.20
2018-08-07T00:56:16.192Z,1006.22
2018-08-07T00:57:16.194Z,1006.18
2018-08-07T00:58:16.392Z,1006.18
2018-08-07T00:59:16.193Z,1006.17
2018-08-07T01:00:16.199Z,1006.18
2018-08-07T01:01:16.205Z,1006.17
2018-08-07T01:02:16.211Z,1006.16
2018-08-07T01:03:16.250Z,1006.15
2018-08-07T01:04:16.219Z,1006.16
2018-08-07T01:05:16.231Z,1006.14
2018-08-07T01:06:16.434Z,1006.17
2018-08-07T01:07:16.435Z,1006.20
2018-08-07T01:08:16.444Z,1006.17
2018-08-07T01:09:16.449Z,1006.15
2018-08-07T01:10:16.251Z,1006.21
2018-08-07T01:11:16.257Z,1006.19
2018-08-07T01:12:16.260Z,1006.20
2018-08-07T01:13:16.267Z,1006.17
2018-08-07T01:14:16.282Z,1006.17
2018-08-07T01:15:16.477Z,1006.22
2018-08-07T01:16:16.281Z,1006.17
2018-08-07T01:17:16.491Z,1006.15
2018-08-07T01:18:16.511Z,1006.15
2018-08-07T01:19:16.499Z,1006.12
2018-08-07T01:20:16.503Z,1006.12
2018-08-07T01:21:16.321Z,1006.14
2018-08-07T01:22:16.322Z,1006.12
2018-08-07T01:23:16.520Z,1006.13
2018-08-07T01:24:16.333Z,1006.12
2018-08-07T01:25:16.326Z,1006.12
2018-08-07T01:26:16.333Z,1006.08
2018-08-07T01:27:16.336Z,1006.06
2018-08-07T01:28:16.374Z,1006.04
2018-08-07T01:29:16.349Z,1006.08
2018-08-07T01:30:16.364Z,1006.03
2018-08-07T01:31:16.391Z,1006.00
2018-08-07T01:32:16.363Z,1006.03
2018-08-07T01:33:16.579Z,1006.00
2018-08-07T01:34:16.573Z,1006.05
2018-08-07T01:35:16.376Z,1006.04
2018-08-07T01:36:16.408Z,1006.04
2018-08-07T01:37:16.399Z,1006.07
2018-08-07T01:38:16.406Z,1006.08
2018-08-07T01:39:16.409Z,1006.11
2018-08-07T01:40:16.414Z,1006.09
2018-08-07T01:41:16.609Z,1006.07
2018-08-07T01:42:16.409Z,1006.05
2018-08-07T01:43:16.429Z,1006.08
2018-08-07T01:44:16.440Z,1006.10
2018-08-07T01:45:16.442Z,1006.10
2018-08-07T01:46:16.638Z,1006.09
2018-08-07T01:47:16.444Z,1006.10
2018-08-07T01:48:16.441Z,1006.10
2018-08-07T01:49:16.444Z,1006.16
2018-08-07T01:50:16.462Z,1006.11
2018-08-07T01:51:16.465Z,1006.15
2018-08-07T01:52:16.669Z,1006.12
2018-08-07T01:53:16.476Z,1006.12
2018-08-07T01:54:16.467Z,1006.13
2018-08-07T01:55:16.468Z,1006.15
2018-08-07T01:56:16.476Z,1006.16
2018-08-07T01:57:16.478Z,1006.17
2018-08-07T01:58:16.515Z,1006.16
2018-08-07T01:59:16.487Z,1006.16
2018-08-07T02:00:16.492Z,1006.14
2018-08-07T02:01:16.498Z,1006.13
2018-08-07T02:02:16.705Z,1006.11
2018-08-07T02:03:16.508Z,1006.12
2018-08-07T02:04:16.521Z,1006.11
2018-08-07T02:05:16.720Z,1006.11
2018-08-07T02:06:16.532Z,1006.10
2018-08-07T02:07:16.525Z,1006.10
2018-08-07T02:08:16.730Z,1006.08
2018-08-07T02:09:16.534Z,1006.07
2018-08-07T02:10:16.547Z,1006.12
2018-08-07T02:11:16.542Z,1006.09
2018-08-07T02:12:16.576Z,1006.09
2018-08-07T02:13:16.552Z,1006.08
2018-08-07T02:14:16.759Z,1006.12
2018-08-07T02:15:16.562Z,1006.08
2018-08-07T02:16:16.565Z,1006.08
2018-08-07T02:17:16.570Z,1006.07
2018-08-07T02:18:16.791Z,1006.04
2018-08-07T02:19:16.581Z,1006.08
2018-08-07T02:20:16.588Z,1006.09
2018-08-07T02:21:16.598Z,1006.04
2018-08-07T02:22:16.592Z,1005.98
2018-08-07T02:23:16.600Z,1006.05
2018-08-07T02:24:16.833Z,1006.05
2018-08-07T02:25:16.617Z,1006.04
2018-08-07T02:26:16.609Z,1006.05
2018-08-07T02:27:16.614Z,1006.03
2018-08-07T02:28:16.617Z,1006.01
2018-08-07T02:29:16.634Z,1006.00
2018-08-07T02:30:16.663Z,1006.02
2018-08-07T02:31:16.629Z,1006.00
2018-08-07T02:32:16.634Z,1006.03
2018-08-07T02:33:16.671Z,1006.03
2018-08-07T02:34:16.655Z,1006.02
2018-08-07T02:35:16.672Z,1006.03
2018-08-07T02:36:16.653Z,1006.01
2018-08-07T02:37:16.667Z,1005.98
2018-08-07T02:38:16.890Z,1005.99
2018-08-07T02:39:16.863Z,1005.99
2018-08-07T02:40:16.675Z,1005.96
2018-08-07T02:41:16.675Z,1005.94
2018-08-07T02:42:16.678Z,1005.94
2018-08-07T02:43:16.902Z,1005.92
2018-08-07T02:44:16.688Z,1005.93
2018-08-07T02:45:16.703Z,1005.91
2018-08-07T02:46:16.692Z,1005.92
2018-08-07T02:47:16.707Z,1005.92
2018-08-07T02:48:16.913Z,1005.95
2018-08-07T02:49:16.716Z,1005.96
2018-08-07T02:50:16.925Z,1005.97
2018-08-07T02:51:16.931Z,1005.96
2018-08-07T02:52:16.930Z,1005.97
2018-08-07T02:53:16.740Z,1005.92
2018-08-07T02:54:16.929Z,1005.91
2018-08-07T02:55:16.760Z,1005.94
2018-08-07T02:56:16.955Z,1005.91
2018-08-07T02:57:16.743Z,1005.92
2018-08-07T02:58:16.783Z,1005.95
2018-08-07T02:59:16.752Z,1005.91
2018-08-07T03:00:16.752Z,1005.89
2018-08-07T03:01:16.758Z,1005.88
2018-08-07T03:02:16.973Z,1005.90
2018-08-07T03:03:16.972Z,1005.85
2018-08-07T03:04:16.782Z,1005.86
2018-08-07T03:05:16.776Z,1005.85
2018-08-07T03:06:16.795Z,1005.87
2018-08-07T03:07:16.811Z,1005.86
2018-08-07T03:08:16.796Z,1005.84
2018-08-07T03:09:16.792Z,1005.89
2018-08-07T03:10:16.808Z,1005.89
2018-08-07T03:11:16.799Z,1005.86
2018-08-07T03:12:16.802Z,1005.88
2018-08-07T03:13:16.814Z,1005.89
2018-08-07T03:14:16.812Z,1005.90
2018-08-07T03:15:16.825Z,1005.91
2018-08-07T03:16:16.818Z,1005.86
2018-08-07T03:17:16.822Z,1005.90
2018-08-07T03:18:16.826Z,1005.88
2018-08-07T03:19:16.831Z,1005.84
2018-08-07T03:20:16.835Z,1005.85
2018-08-07T03:21:16.839Z,1005.87
2018-08-07T03:22:17.060Z,1005.85
2018-08-07T03:23:16.848Z,1005.89
2018-08-07T03:24:16.879Z,1005.80
2018-08-07T03:25:16.888Z,1005.85
2018-08-07T03:26:16.883Z,1005.84
2018-08-07T03:27:17.096Z,1005.81
2018-08-07T03:28:16.867Z,1005.79
2018-08-07T03:29:16.873Z,1005.78
2018-08-07T03:30:16.873Z,1005.80
2018-08-07T03:31:16.877Z,1005.79
2018-08-07T03:32:16.892Z,1005.80
2018-08-07T03:33:16.884Z,1005.79
2018-08-07T03:34:16.905Z,1005.82
2018-08-07T03:35:16.905Z,1005.83
2018-08-07T03:36:16.909Z,1005.84
2018-08-07T03:37:17.113Z,1005.86
2018-08-07T03:38:16.921Z,1005.83
2018-08-07T03:39:17.120Z,1005.85
2018-08-07T03:40:16.914Z,1005.84
2018-08-07T03:41:16.943Z,1005.84
2018-08-07T03:42:16.920Z,1005.85
2018-08-07T03:43:16.926Z,1005.89
2018-08-07T03:44:16.926Z,1005.91
2018-08-07T03:45:17.134Z,1005.90
2018-08-07T03:46:16.948Z,1005.95
2018-08-07T03:47:16.952Z,1005.93
2018-08-07T03:48:16.940Z,1005.96
2018-08-07T03:49:17.019Z,1005.97
2018-08-07T03:50:16.949Z,1005.95
2018-08-07T03:51:16.955Z,1005.96
2018-08-07T03:52:16.957Z,1005.97
2018-08-07T03:53:16.974Z,1005.93
2018-08-07T03:54:16.977Z,1005.96
2018-08-07T03:55:16.978Z,1005.96
2018-08-07T03:56:16.974Z,1005.93
2018-08-07T03:57:17.178Z,1005.94
2018-08-07T03:58:16.995Z,1005.89
2018-08-07T03:59:16.984Z,1005.95
2018-08-07T04:00:17.200Z,1005.91
2018-08-07T04:01:17.216Z,1005.93
2018-08-07T04:02:16.996Z,1005.96
2018-08-07T04:03:16.997Z,1005.94
2018-08-07T04:04:17.003Z,1005.94
2018-08-07T04:05:17.234Z,1005.97
2018-08-07T04:06:17.033Z,1005.99
2018-08-07T04:07:17.247Z,1005.98
2018-08-07T04:08:17.029Z,1005.98
2018-08-07T04:09:17.023Z,1005.97
2018-08-07T04:10:17.024Z,1006.00
2018-08-07T04:11:17.026Z,1005.96
2018-08-07T04:12:17.232Z,1006.02
2018-08-07T04:13:17.064Z,1006.00
2018-08-07T04:14:17.039Z,1005.98
2018-08-07T04:15:17.044Z,1005.97
2018-08-07T04:16:17.047Z,1005.99
2018-08-07T04:17:17.051Z,1005.96
2018-08-07T04:18:17.057Z,1006.00
2018-08-07T04:19:17.258Z,1005.97
2018-08-07T04:20:17.091Z,1005.98
2018-08-07T04:21:17.065Z,1005.96
2018-08-07T04:22:17.096Z,1005.99
2018-08-07T04:23:17.069Z,1005.97
2018-08-07T04:24:17.074Z,1005.97
2018-08-07T04:25:17.089Z,1005.94
2018-08-07T04:26:17.284Z,1005.98
2018-08-07T04:27:17.098Z,1005.96
2018-08-07T04:28:17.292Z,1005.99
2018-08-07T04:29:17.094Z,1005.98
2018-08-07T04:30:17.095Z,1005.98
2018-08-07T04:31:17.112Z,1006.00
2018-08-07T04:32:17.107Z,1005.93
2018-08-07T04:33:17.118Z,1005.93
2018-08-07T04:34:17.135Z,1005.97
2018-08-07T04:35:17.132Z,1005.96
2018-08-07T04:36:17.134Z,1005.96
2018-08-07T04:37:17.120Z,1006.01
2018-08-07T04:38:17.124Z,1006.04
2018-08-07T04:39:17.339Z,1006.00
2018-08-07T04:40:17.369Z,1006.03
2018-08-07T04:41:17.136Z,1006.03
2018-08-07T04:42:17.353Z,1006.03
2018-08-07T04:43:17.146Z,1006.05
2018-08-07T04:44:17.148Z,1006.06
2018-08-07T04:45:17.161Z,1006.04
2018-08-07T04:46:17.179Z,1006.02
2018-08-07T04:47:17.357Z,1006.04
2018-08-07T04:48:17.376Z,1006.02
2018-08-07T04:49:17.375Z,1006.02
2018-08-07T04:50:17.169Z,1006.05
2018-08-07T04:51:17.170Z,1006.03
2018-08-07T04:52:17.173Z,1006.06
2018-08-07T04:53:17.180Z,1006.03
2018-08-07T04:54:17.184Z,1006.02
2018-08-07T04:55:17.197Z,1006.04
2018-08-07T04:56:17.393Z,1006.04
2018-08-07T04:57:17.395Z,1006.03
2018-08-07T04:58:17.400Z,1006.03
2018-08-07T04:59:17.199Z,1006.06
2018-08-07T05:00:17.207Z,1006.04
2018-08-07T05:01:17.209Z,1006.04
2018-08-07T05:02:17.213Z,1006.06
2018-08-07T05:03:17.217Z,1006.08
2018-08-07T05:04:17.436Z,1006.08
2018-08-07T05:05:17.222Z,1006.09
2018-08-07T05:06:17.224Z,1006.10
2018-08-07T05:07:17.229Z,1006.09
2018-08-07T05:08:17.232Z,1006.10
2018-08-07T05:09:17.251Z,1006.08
2018-08-07T05:10:17.507Z,1006.14
2018-08-07T05:11:17.246Z,1006.13
2018-08-07T05:12:17.245Z,1006.11
2018-08-07T05:13:17.452Z,1006.14
2018-08-07T05:14:17.308Z,1006.14
2018-08-07T05:15:17.284Z,1006.14
2018-08-07T05:16:17.272Z,1006.20
2018-08-07T05:17:17.277Z,1006.18
2018-08-07T05:18:17.288Z,1006.15
2018-08-07T05:19:17.284Z,1006.18
2018-08-07T05:20:17.293Z,1006.14
2018-08-07T05:21:17.281Z,1006.13
2018-08-07T05:22:17.296Z,1006.20
2018-08-07T05:23:17.301Z,1006.16
2018-08-07T05:24:17.291Z,1006.20
2018-08-07T05:25:17.296Z,1006.17
2018-08-07T05:26:17.514Z,1006.16
2018-08-07T05:27:17.305Z,1006.17
2018-08-07T05:28:17.307Z,1006.16
2018-08-07T05:29:17.313Z,1006.14
2018-08-07T05:30:17.316Z,1006.15
2018-08-07T05:31:17.319Z,1006.14
2018-08-07T05:32:17.324Z,1006.09
2018-08-07T05:33:17.341Z,1006.13
2018-08-07T05:34:17.534Z,1006.14
2018-08-07T05:35:17.549Z,1006.10
2018-08-07T05:36:17.340Z,1006.14
2018-08-07T05:37:17.355Z,1006.13
2018-08-07T05:38:17.375Z,1006.11
2018-08-07T05:39:17.351Z,1006.06
2018-08-07T05:40:17.572Z,1006.05
2018-08-07T05:41:17.370Z,1006.05
2018-08-07T05:42:17.681Z,1006.06
2018-08-07T05:43:17.396Z,1006.07
2018-08-07T05:44:17.388Z,1006.09
2018-08-07T05:45:17.397Z,1006.07
2018-08-07T05:46:17.381Z,1006.10
2018-08-07T05:47:17.384Z,1006.09
2018-08-07T05:48:17.590Z,1006.09
2018-08-07T05:49:17.609Z,1006.06
2018-08-07T05:50:17.531Z,1006.06
2018-08-07T05:51:17.778Z,1006.03
2018-08-07T05:52:17.407Z,1006.06
2018-08-07T05:53:17.422Z,1006.06
2018-08-07T05:54:17.424Z,1006.04
2018-08-07T05:55:17.715Z,1006.05
2018-08-07T05:56:17.440Z,1006.05
2018-08-07T05:57:17.691Z,1006.06
2018-08-07T05:58:17.434Z,1006.04
2018-08-07T05:59:17.653Z,1006.03
2018-08-07T06:00:17.442Z,1006.04
2018-08-07T06:01:17.462Z,1006.07
2018-08-07T06:02:17.454Z,1006.07
2018-08-07T06:03:17.464Z,1006.07
2018-08-07T06:04:17.663Z,1006.05
2018-08-07T06:05:17.473Z,1006.07
2018-08-07T06:06:17.681Z,1006.06
2018-08-07T06:07:17.488Z,1006.08
2018-08-07T06:08:17.479Z,1006.07
2018-08-07T06:09:17.482Z,1006.08
2018-08-07T06:10:17.487Z,1006.05
2018-08-07T06:11:17.491Z,1006.09
2018-08-07T06:12:17.495Z,1006.10
2018-08-07T06:13:17.511Z,1006.07
2018-08-07T06:14:17.516Z,1006.05
2018-08-07T06:15:17.513Z,1006.05
2018-08-07T06:16:17.526Z,1006.07
2018-08-07T06:17:17.537Z,1006.05
2018-08-07T06:18:17.743Z,1006.05
2018-08-07T06:19:17.818Z,1006.07
2018-08-07T06:20:17.736Z,1006.07
2018-08-07T06:21:17.547Z,1006.08
2018-08-07T06:22:17.576Z,1006.06
2018-08-07T06:23:17.550Z,1006.08
2018-08-07T06:24:17.556Z,1006.09
2018-08-07T06:25:17.559Z,1006.08
2018-08-07T06:26:17.568Z,1006.08
2018-08-07T06:27:17.569Z,1006.08
2018-08-07T06:28:17.583Z,1006.11
2018-08-07T06:29:17.590Z,1006.09
2018-08-07T06:30:17.596Z,1006.11
2018-08-07T06:31:17.622Z,1006.11
2018-08-07T06:32:17.615Z,1006.12
2018-08-07T06:33:17.605Z,1006.22
2018-08-07T06:34:17.628Z,1006.26
2018-08-07T06:35:17.822Z,1006.27
2018-08-07T06:36:17.816Z,1006.17
2018-08-07T06:37:17.622Z,1006.11
2018-08-07T06:38:17.628Z,1006.12
2018-08-07T06:39:17.834Z,1006.10
2018-08-07T06:40:17.840Z,1006.06
2018-08-07T06:41:17.642Z,1006.07
2018-08-07T06:42:17.674Z,1006.07
2018-08-07T06:43:17.655Z,1006.07
2018-08-07T06:44:17.876Z,1006.07
2018-08-07T06:45:17.668Z,1006.08
2018-08-07T06:46:17.681Z,1006.04
2018-08-07T06:47:17.692Z,1006.04
2018-08-07T06:48:17.696Z,1006.04
2018-08-07T06:49:17.685Z,1006.09
2018-08-07T06:50:17.717Z,1006.12
2018-08-07T06:51:17.711Z,1006.03
2018-08-07T06:52:17.928Z,1006.05
2018-08-07T06:53:17.709Z,1006.04
2018-08-07T06:54:17.917Z,1006.05
2018-08-07T06:55:17.732Z,1006.05
2018-08-07T06:56:17.938Z,1006.10
2018-08-07T06:57:17.933Z,1006.09
2018-08-07T06:58:17.965Z,1006.09
2018-08-07T06:59:17.740Z,1006.11
2018-08-07T07:00:17.980Z,1006.07
2018-08-07T07:01:18.011Z,1006.02
2018-08-07T07:02:17.758Z,1005.97
2018-08-07T07:03:17.964Z,1005.99
2018-08-07T07:04:17.768Z,1005.99
2018-08-07T07:05:17.787Z,1006.01
2018-08-07T07:06:17.782Z,1005.97
2018-08-07T07:07:17.786Z,1006.00
2018-08-07T07:08:17.994Z,1005.97
2018-08-07T07:09:17.808Z,1005.97
2018-08-07T07:10:18.009Z,1005.95
2018-08-07T07:11:17.821Z,1005.96
2018-08-07T07:12:17.819Z,1006.02
2018-08-07T07:13:18.026Z,1005.98
2018-08-07T07:14:18.045Z,1006.03
2018-08-07T07:15:17.843Z,1006.04
2018-08-07T07:16:18.044Z,1006.09
2018-08-07T07:17:17.849Z,1006.06
2018-08-07T07:18:17.878Z,1006.06
2018-08-07T07:19:17.873Z,1006.04
2018-08-07T07:20:17.903Z,1005.95
2018-08-07T07:21:17.875Z,1005.97
2018-08-07T07:22:17.908Z,1005.93
2018-08-07T07:23:17.916Z,1005.98
2018-08-07T07:24:18.112Z,1005.98
2018-08-07T07:25:17.900Z,1005.97
2018-08-07T07:26:17.916Z,1005.97
2018-08-07T07:27:17.924Z,1006.06
2018-08-07T07:28:18.123Z,1006.13
2018-08-07T07:29:17.944Z,1006.13
2018-08-07T07:30:18.141Z,1006.09
2018-08-07T07:31:18.142Z,1005.99
2018-08-07T07:32:18.149Z,1006.05
2018-08-07T07:33:17.969Z,1006.02
2018-08-07T07:34:17.983Z,1005.96
2018-08-07T07:35:17.984Z,1005.96
2018-08-07T07:36:17.988Z,1005.89
2018-08-07T07:37:17.985Z,1005.87
2018-08-07T07:38:18.223Z,1005.83
2018-08-07T07:39:17.998Z,1005.85
2018-08-07T07:40:18.223Z,1005.83
2018-08-07T07:41:18.013Z,1005.87
2018-08-07T07:42:18.224Z,1005.88
2018-08-07T07:43:18.230Z,1005.87
2018-08-07T07:44:18.040Z,1005.87
2018-08-07T07:45:18.251Z,1005.94
2018-08-07T07:46:18.254Z,1005.88
2018-08-07T07:47:18.260Z,1005.89
2018-08-07T07:48:18.266Z,1005.85
2018-08-07T07:49:18.291Z,1005.85
2018-08-07T07:50:18.080Z,1005.82
2018-08-07T07:51:18.090Z,1005.86
2018-08-07T07:52:18.096Z,1005.84
2018-08-07T07:53:18.119Z,1005.84
2018-08-07T07:54:18.133Z,1005.86
2018-08-07T07:55:18.117Z,1005.85
2018-08-07T07:56:18.128Z,1005.82
2018-08-07T07:57:18.146Z,1005.87
2018-08-07T07:58:18.145Z,1005.90
2018-08-07T07:59:18.162Z,1005.86
2018-08-07T08:00:18.359Z,1005.78
2018-08-07T08:01:18.164Z,1005.82
2018-08-07T08:02:18.171Z,1005.80
2018-08-07T08:03:18.193Z,1005.80
2018-08-07T08:04:18.185Z,1005.82
2018-08-07T08:05:18.323Z,1005.79
2018-08-07T08:06:18.204Z,1005.77
2018-08-07T08:07:18.421Z,1005.79
2018-08-07T08:08:18.419Z,1005.78
2018-08-07T08:09:18.240Z,1005.77
2018-08-07T08:10:18.248Z,1005.77
2018-08-07T08:11:18.259Z,1005.77
2018-08-07T08:12:18.271Z,1005.79
2018-08-07T08:13:18.270Z,1005.77
2018-08-07T08:14:18.267Z,1005.75
2018-08-07T08:15:18.275Z,1005.71
2018-08-07T08:16:18.502Z,1005.75
2018-08-07T08:17:18.296Z,1005.74
2018-08-07T08:18:18.494Z,1005.75
2018-08-07T08:19:18.320Z,1005.77
2018-08-07T08:20:18.519Z,1005.77
2018-08-07T08:21:18.316Z,1005.78
2018-08-07T08:22:18.326Z,1005.79
2018-08-07T08:23:18.353Z,1005.81
2018-08-07T08:24:18.351Z,1005.79
2018-08-07T08:25:18.359Z,1005.80
2018-08-07T08:26:18.374Z,1005.79
2018-08-07T08:27:18.574Z,1005.75
2018-08-07T08:28:18.388Z,1005.77
2018-08-07T08:29:18.432Z,1005.76
2018-08-07T08:30:18.385Z,1005.76
2018-08-07T08:31:18.599Z,1005.77
2018-08-07T08:32:18.403Z,1005.79
2018-08-07T08:33:18.412Z,1005.80
2018-08-07T08:34:18.420Z,1005.81
2018-08-07T08:35:18.542Z,1005.84
2018-08-07T08:36:18.438Z,1005.80
2018-08-07T08:37:18.660Z,1005.80
2018-08-07T08:38:18.499Z,1005.80
2018-08-07T08:39:18.475Z,1005.84
2018-08-07T08:40:18.475Z,1005.80
2018-08-07T08:41:18.486Z,1005.85
2018-08-07T08:42:18.491Z,1005.92
2018-08-07T08:43:18.512Z,1005.89
2018-08-07T08:44:18.731Z,1005.93
2018-08-07T08:45:18.721Z,1005.93
2018-08-07T08:46:18.530Z,1005.90
2018-08-07T08:47:18.750Z,1005.90
2018-08-07T08:48:18.582Z,1005.87
2018-08-07T08:49:18.774Z,1005.84
2018-08-07T08:50:18.582Z,1005.82
2018-08-07T08:51:18.580Z,1005.75
2018-08-07T08:52:18.618Z,1005.72
2018-08-07T08:53:18.798Z,1005.74
2018-08-07T08:54:18.620Z,1005.80
2018-08-07T08:55:18.836Z,1005.73
2018-08-07T08:56:18.628Z,1005.66
2018-08-07T08:57:18.862Z,1005.64
2018-08-07T08:58:18.859Z,1005.66
2018-08-07T08:59:18.858Z,1005.64
2018-08-07T09:00:18.877Z,1005.69
2018-08-07T09:01:18.877Z,1005.63
2018-08-07T09:02:18.715Z,1005.65
2018-08-07T09:03:18.942Z,1005.61
2018-08-07T09:04:18.907Z,1005.62
2018-08-07T09:05:18.740Z,1005.61
2018-08-07T09:06:18.736Z,1005.60
2018-08-07T09:07:18.744Z,1005.57
2018-08-07T09:08:18.967Z,1005.52
2018-08-07T09:09:18.751Z,1005.52
2018-08-07T09:10:18.821Z,1005.51
2018-08-07T09:11:18.825Z,1005.52
2018-08-07T09:12:18.779Z,1005.53
2018-08-07T09:13:18.796Z,1005.48
2018-08-07T09:14:18.805Z,1005.46
2018-08-07T09:15:18.815Z,1005.43
2018-08-07T09:16:18.812Z,1005.44
2018-08-07T09:17:18.819Z,1005.44
2018-08-07T09:18:18.837Z,1005.45
2018-08-07T09:19:18.850Z,1005.45
2018-08-07T09:20:18.864Z,1005.45
2018-08-07T09:21:19.057Z,1005.45
2018-08-07T09:22:18.885Z,1005.42
2018-08-07T09:23:19.076Z,1005.40
2018-08-07T09:24:18.881Z,1005.42
2018-08-07T09:25:19.218Z,1005.33
2018-08-07T09:26:19.130Z,1005.37
2018-08-07T09:27:18.906Z,1005.34
2018-08-07T09:28:18.930Z,1005.35
2018-08-07T09:29:18.925Z,1005.32
2018-08-07T09:30:18.943Z,1005.36
2018-08-07T09:31:19.143Z,1005.33
2018-08-07T09:32:18.964Z,1005.31
2018-08-07T09:33:18.972Z,1005.30
2018-08-07T09:34:18.969Z,1005.30
2018-08-07T09:35:18.986Z,1005.25
2018-08-07T09:36:18.981Z,1005.21
2018-08-07T09:37:18.989Z,1005.21
2018-08-07T09:38:19.000Z,1005.21
2018-08-07T09:39:19.004Z,1005.20
2018-08-07T09:40:19.014Z,1005.17
2018-08-07T09:41:19.022Z,1005.16
2018-08-07T09:42:19.232Z,1005.15
2018-08-07T09:43:19.254Z,1005.16
2018-08-07T09:44:19.046Z,1005.13
2018-08-07T09:45:19.056Z,1005.12
2018-08-07T09:46:19.263Z,1005.14
2018-08-07T09:47:19.084Z,1005.11
2018-08-07T09:48:19.076Z,1005.13
2018-08-07T09:49:19.287Z,1005.13
2018-08-07T09:50:19.094Z,1005.11
2018-08-07T09:51:19.316Z,1005.12
2018-08-07T09:52:19.154Z,1005.09
2018-08-07T09:53:19.128Z,1005.11
2018-08-07T09:54:19.327Z,1005.09
2018-08-07T09:55:19.134Z,1005.10
2018-08-07T09:56:19.152Z,1005.10
2018-08-07T09:57:19.165Z,1005.09
2018-08-07T09:58:19.157Z,1005.06
2018-08-07T09:59:19.168Z,1005.08
2018-08-07T10:00:19.172Z,1005.06
2018-08-07T10:01:19.195Z,1005.05
2018-08-07T10:02:19.188Z,1005.01
2018-08-07T10:03:19.401Z,1005.03
2018-08-07T10:04:19.203Z,1005.06
2018-08-07T10:05:19.289Z,1005.05
2018-08-07T10:06:19.220Z,1004.98
2018-08-07T10:07:19.446Z,1004.97
2018-08-07T10:08:19.250Z,1004.93
2018-08-07T10:09:19.256Z,1004.98
2018-08-07T10:10:19.480Z,1004.94
2018-08-07T10:11:19.276Z,1004.94
2018-08-07T10:12:19.272Z,1004.92
2018-08-07T10:13:19.477Z,1004.93
2018-08-07T10:14:19.284Z,1004.86
2018-08-07T10:15:19.492Z,1004.90
2018-08-07T10:16:19.299Z,1004.91
2018-08-07T10:17:19.325Z,1004.91
2018-08-07T10:18:19.517Z,1004.86
2018-08-07T10:19:19.324Z,1004.89
2018-08-07T10:20:19.334Z,1004.87
2018-08-07T10:21:19.354Z,1004.85
2018-08-07T10:22:19.346Z,1004.85
2018-08-07T10:23:19.613Z,1004.83
2018-08-07T10:24:19.390Z,1004.79
2018-08-07T10:25:19.370Z,1004.79
2018-08-07T10:26:19.590Z,1004.77
2018-08-07T10:27:19.389Z,1004.75
2018-08-07T10:28:19.624Z,1004.72
2018-08-07T10:29:19.615Z,1004.66
2018-08-07T10:30:19.636Z,1004.67
2018-08-07T10:31:19.421Z,1004.66
2018-08-07T10:32:19.427Z,1004.71
2018-08-07T10:33:19.652Z,1004.64
2018-08-07T10:34:19.468Z,1004.67
2018-08-07T10:35:19.447Z,1004.63
2018-08-07T10:36:19.455Z,1004.66
2018-08-07T10:37:19.464Z,1004.68
2018-08-07T10:38:19.480Z,1004.61
2018-08-07T10:39:19.495Z,1004.64
2018-08-07T10:40:19.491Z,1004.61
2018-08-07T10:41:19.549Z,1004.62
2018-08-07T10:42:19.513Z,1004.58
2018-08-07T10:43:19.832Z,1004.60
2018-08-07T10:44:19.585Z,1004.57
2018-08-07T10:45:19.729Z,1004.54
2018-08-07T10:46:19.738Z,1004.51
2018-08-07T10:47:19.755Z,1004.53
2018-08-07T10:48:19.561Z,1004.52
2018-08-07T10:49:19.558Z,1004.50
2018-08-07T10:50:19.781Z,1004.52
2018-08-07T10:51:19.572Z,1004.51
2018-08-07T10:52:19.613Z,1004.53
2018-08-07T10:53:19.590Z,1004.50
2018-08-07T10:54:19.810Z,1004.52
2018-08-07T10:55:19.612Z,1004.49
2018-08-07T10:56:19.620Z,1004.50
2018-08-07T10:57:19.623Z,1004.48
2018-08-07T10:58:19.700Z,1004.47
2018-08-07T10:59:19.667Z,1004.40
2018-08-07T11:00:19.658Z,1004.40
2018-08-07T11:01:19.686Z,1004.43
2018-08-07T11:02:19.678Z,1004.40
2018-08-07T11:03:19.898Z,1004.38
2018-08-07T11:04:19.885Z,1004.33
2018-08-07T11:05:19.688Z,1004.33
2018-08-07T11:06:19.900Z,1004.26
2018-08-07T11:07:19.715Z,1004.24
2018-08-07T11:08:19.741Z,1004.28
2018-08-07T11:09:19.731Z,1004.32
2018-08-07T11:10:19.740Z,1004.30
2018-08-07T11:11:19.769Z,1004.28
2018-08-07T11:12:19.744Z,1004.23
2018-08-07T11:13:19.762Z,1004.23
2018-08-07T11:14:19.779Z,1004.20
2018-08-07T11:15:19.782Z,1004.22
2018-08-07T11:16:19.987Z,1004.21
2018-08-07T11:17:19.784Z,1004.22
2018-08-07T11:18:19.807Z,1004.15
2018-08-07T11:19:19.811Z,1004.17
2018-08-07T11:20:19.822Z,1004.15
2018-08-07T11:21:19.819Z,1004.17
2018-08-07T11:22:19.824Z,1004.15
2018-08-07T11:23:19.833Z,1004.16
2018-08-07T11:24:20.078Z,1004.18
2018-08-07T11:25:20.050Z,1004.14
2018-08-07T11:26:19.858Z,1004.10
2018-08-07T11:27:19.869Z,1004.12
2018-08-07T11:28:19.907Z,1004.12
2018-08-07T11:29:19.911Z,1004.10
2018-08-07T11:30:19.902Z,1004.10
2018-08-07T11:31:19.900Z,1004.09
2018-08-07T11:32:19.921Z,1004.12
2018-08-07T11:33:19.914Z,1004.08
2018-08-07T11:34:19.935Z,1004.08
2018-08-07T11:35:19.942Z,1004.14
2018-08-07T11:36:19.938Z,1004.10
2018-08-07T11:37:20.150Z,1004.14
2018-08-07T11:38:19.967Z,1004.10
2018-08-07T11:39:19.978Z,1004.12
2018-08-07T11:40:19.986Z,1004.14
2018-08-07T11:41:20.047Z,1004.09
2018-08-07T11:42:19.999Z,1004.09
2018-08-07T11:43:20.011Z,1004.08
2018-08-07T11:44:20.005Z,1004.09
2018-08-07T11:45:20.015Z,1004.06
2018-08-07T11:46:20.035Z,1004.04
2018-08-07T11:47:20.030Z,1004.03
2018-08-07T11:48:20.111Z,1004.03
2018-08-07T11:49:20.058Z,1004.03
2018-08-07T11:50:20.055Z,1004.03
2018-08-07T11:51:20.092Z,1004.01
2018-08-07T11:52:20.069Z,1003.96
2018-08-07T11:53:20.093Z,1003.96
2018-08-07T11:54:20.309Z,1003.96
2018-08-07T11:55:20.297Z,1003.95
2018-08-07T11:56:20.145Z,1003.92
2018-08-07T11:57:20.113Z,1003.90
2018-08-07T11:58:20.120Z,1003.89
2018-08-07T11:59:20.130Z,1003.92
2018-08-07T12:00:20.139Z,1003.90
2018-08-07T12:01:20.176Z,1003.89
2018-08-07T12:02:20.215Z,1003.86
2018-08-07T12:03:20.162Z,1003.87
2018-08-07T12:04:20.171Z,1003.92
2018-08-07T12:05:20.379Z,1003.90